Time;durP1;ratioP1;P1;durP2;ratioP2;P2;SDS_P1;SDS_P2;PMS_P1;PMS_P2;Temp;Humidity;BMP_temperature;BMP_pressure;BME280_temperature;BME280_humidity;BME280_pressure;Samples;Min_cycle;Max_cycle;Signal;HPM_P1;HPM_P2
2023/03/31 06:31:38;;;;;;;10.05;4.93;;;12.20;99.90;;;;;;6837806;23;20070;-77
2023/03/31 06:34:40;;;;;;;12.85;4.70;;;12.20;99.90;;;;;;6200827;28;20043;-80
2023/03/31 06:37:42;;;;;;;14.88;6.72;;;12.30;99.90;;;;;;6175199;28;20547;-80
2023/03/31 06:40:44;;;;;;;15.07;6.28;;;12.30;99.90;;;;;;6176574;28;20051;-76
2023/03/31 06:43:46;;;;;;;11.93;5.13;;;12.30;99.90;;;;;;6176355;28;20050;-79
2023/03/31 06:46:49;;;;;;;11.05;4.45;;;12.30;99.90;;;;;;6175812;28;20054;-79
2023/03/31 06:49:51;;;;;;;12.27;5.00;;;12.40;99.90;;;;;;6176306;28;20073;-78
2023/03/31 06:52:54;;;;;;;11.85;4.88;;;12.40;99.90;;;;;;6176241;28;20154;-78
2023/03/31 06:55:56;;;;;;;9.20;4.93;;;12.20;99.90;;;;;;6171571;28;20141;-80
2023/03/31 06:58:58;;;;;;;14.68;5.90;;;12.10;99.90;;;;;;6152922;29;20130;-79
2023/03/31 07:02:01;;;;;;;13.38;5.90;;;11.80;99.90;;;;;;6152188;29;20047;-78
2023/03/31 07:05:03;;;;;;;14.13;5.38;;;11.60;99.90;;;;;;6169090;28;20058;-78
2023/03/31 07:08:06;;;;;;;11.40;5.28;;;11.40;99.90;;;;;;6180661;28;20149;-80
2023/03/31 07:11:07;;;;;;;12.30;5.72;;;11.20;99.90;;;;;;6167470;28;20422;-81
2023/03/31 07:14:09;;;;;;;15.52;5.43;;;11.20;99.90;;;;;;6158891;28;20484;-79
2023/03/31 07:17:13;;;;;;;12.90;6.20;;;11.10;99.90;;;;;;6166536;28;20058;-79
2023/03/31 07:20:17;;;;;;;10.93;5.50;;;11.10;99.90;;;;;;6152179;29;20489;-80
2023/03/31 07:23:20;;;;;;;8.18;3.65;;;11.00;99.90;;;;;;6151972;29;20057;-80
2023/03/31 07:26:23;;;;;;;7.93;3.13;;;11.10;99.90;;;;;;6151650;28;20066;-77
2023/03/31 07:29:25;;;;;;;4.82;2.08;;;11.00;99.90;;;;;;6151959;29;20051;-81
2023/03/31 07:32:28;;;;;;;5.65;2.25;;;10.90;99.90;;;;;;6151619;29;20063;-76
2023/03/31 07:35:30;;;;;;;9.15;3.03;;;11.00;99.90;;;;;;6151348;29;20047;-78
2023/03/31 07:38:31;;;;;;;5.93;2.90;;;11.10;99.90;;;;;;6151707;29;20051;-79
2023/03/31 07:41:33;;;;;;;7.72;2.80;;;11.20;99.90;;;;;;6151507;28;20428;-77
2023/03/31 07:44:36;;;;;;;5.65;2.53;;;11.10;99.90;;;;;;6151492;29;20054;-80
2023/03/31 07:47:40;;;;;;;7.65;2.65;;;11.30;99.90;;;;;;6151744;29;20048;-77
2023/03/31 07:50:42;;;;;;;6.13;2.85;;;11.30;99.90;;;;;;6151633;29;20142;-77
2023/03/31 07:53:44;;;;;;;4.75;2.20;;;11.40;99.90;;;;;;6151555;29;20051;-77
2023/03/31 07:56:46;;;;;;;5.03;2.00;;;11.40;99.90;;;;;;6151520;28;20134;-79
2023/03/31 07:59:48;;;;;;;4.63;2.10;;;11.50;99.90;;;;;;6151072;29;20047;-76
2023/03/31 08:02:51;;;;;;;4.88;1.77;;;11.50;99.90;;;;;;6150785;29;20209;-78
2023/03/31 08:05:54;;;;;;;4.30;1.80;;;11.60;99.90;;;;;;6151243;29;20047;-78
2023/03/31 08:08:56;;;;;;;3.72;1.50;;;11.60;99.90;;;;;;6174826;28;20516;-77
2023/03/31 08:11:59;;;;;;;4.37;1.73;;;11.60;99.90;;;;;;6151791;28;20055;-80
2023/03/31 08:15:00;;;;;;;3.95;1.48;;;11.60;99.90;;;;;;6150870;29;20122;-77
2023/03/31 08:18:05;;;;;;;4.10;1.60;;;11.60;99.90;;;;;;6150824;29;20052;-80
2023/03/31 08:21:08;;;;;;;4.20;1.88;;;11.70;99.90;;;;;;6150876;29;20051;-79
2023/03/31 08:24:10;;;;;;;3.95;1.33;;;11.70;99.90;;;;;;6153385;28;20059;-78
2023/03/31 08:27:12;;;;;;;4.43;1.50;;;11.70;99.90;;;;;;6176411;28;20043;-78
2023/03/31 08:30:14;;;;;;;3.35;1.10;;;11.80;99.90;;;;;;6183808;28;20046;-78
2023/03/31 08:33:18;;;;;;;4.70;1.23;;;11.90;99.90;;;;;;6180275;28;20050;-75
2023/03/31 08:36:20;;;;;;;2.53;0.90;;;11.90;99.90;;;;;;6159674;28;20051;-79
2023/03/31 08:39:22;;;;;;;2.42;0.80;;;12.00;99.90;;;;;;6162272;28;20054;-77
2023/03/31 08:42:36;;;;;;;2.55;0.85;;;12.10;99.90;;;;;;6179287;28;20057;-76
2023/03/31 08:45:42;;;;;;;2.13;0.90;;;12.10;99.90;;;;;;6179156;28;20046;-77
2023/03/31 08:48:50;;;;;;;2.70;1.00;;;12.20;99.90;;;;;;6178954;28;20058;-75
2023/03/31 08:51:56;;;;;;;2.95;0.88;;;12.30;99.90;;;;;;6179555;28;20047;-77
2023/03/31 08:55:04;;;;;;;2.17;0.80;;;12.30;99.90;;;;;;6177242;28;20408;-79
2023/03/31 08:58:15;;;;;;;3.17;1.00;;;12.50;99.90;;;;;;6161521;28;20126;-78
2023/03/31 09:01:27;;;;;;;4.20;0.82;;;12.60;99.90;;;;;;6156847;28;20051;-77
2023/03/31 09:04:51;;;;;;;3.17;1.00;;;12.70;99.90;;;;;;6179381;28;20062;-78
2023/03/31 09:08:04;;;;;;;3.13;0.90;;;12.80;99.90;;;;;;6178973;28;20051;-77
2023/03/31 09:11:13;;;;;;;2.72;1.00;;;12.80;99.90;;;;;;6173920;28;20057;-78
2023/03/31 09:14:30;;;;;;;3.53;0.90;;;12.90;99.90;;;;;;6175386;28;20055;-77
2023/03/31 09:17:39;;;;;;;4.18;1.02;;;13.10;99.90;;;;;;6175645;28;20046;-78
2023/03/31 09:20:46;;;;;;;2.55;0.80;;;13.20;99.90;;;;;;6170077;28;20149;-78
2023/03/31 09:23:55;;;;;;;2.53;0.77;;;13.30;99.90;;;;;;6153705;28;20047;-78
2023/03/31 09:27:01;;;;;;;4.50;0.77;;;13.50;99.90;;;;;;6162237;28;20051;-77
2023/03/31 09:30:10;;;;;;;3.15;0.73;;;13.60;98.70;;;;;;6149745;29;20051;-79
2023/03/31 09:33:17;;;;;;;2.90;0.80;;;13.80;98.60;;;;;;6156046;28;20051;-75
2023/03/31 09:36:22;;;;;;;2.28;0.70;;;13.80;97.50;;;;;;6174121;28;20051;-76
2023/03/31 09:39:24;;;;;;;2.70;0.85;;;13.90;97.00;;;;;;6158483;28;20047;-76
2023/03/31 09:42:26;;;;;;;3.22;0.88;;;13.90;96.90;;;;;;6162338;28;20066;-78
2023/03/31 09:45:29;;;;;;;2.53;0.80;;;13.90;96.10;;;;;;6171079;28;20050;-77
2023/03/31 09:48:35;;;;;;;3.95;0.93;;;14.00;95.70;;;;;;6153475;28;20170;-78
2023/03/31 09:51:43;;;;;;;6.25;1.10;;;14.30;95.60;;;;;;6153017;28;20090;-78
2023/03/31 09:54:50;;;;;;;4.80;1.13;;;14.30;94.80;;;;;;6162072;28;20523;-79
2023/03/31 09:57:51;;;;;;;4.55;1.20;;;14.40;94.70;;;;;;6166971;28;20382;-78
2023/03/31 10:01:00;;;;;;;5.50;1.38;;;14.40;94.40;;;;;;6152378;29;20378;-78
2023/03/31 10:04:04;;;;;;;4.90;1.25;;;14.50;93.40;;;;;;6153079;29;20102;-78
2023/03/31 10:07:07;;;;;;;5.50;1.20;;;14.40;93.40;;;;;;6152694;29;20055;-78
2023/03/31 10:10:21;;;;;;;6.25;1.40;;;14.50;93.40;;;;;;6153894;28;20047;-78
2023/03/31 10:13:28;;;;;;;6.45;1.38;;;14.70;93.90;;;;;;6153618;29;20054;-77
2023/03/31 10:16:33;;;;;;;4.55;1.20;;;14.90;93.20;;;;;;6153559;29;20396;-75
2023/03/31 10:19:37;;;;;;;7.55;1.73;;;14.70;93.00;;;;;;6152836;29;20084;-79
2023/03/31 10:22:45;;;;;;;4.75;1.30;;;14.70;93.70;;;;;;6152905;29;20058;-79
2023/03/31 10:25:47;;;;;;;5.15;1.13;;;14.80;93.50;;;;;;6153834;28;20047;-75
2023/03/31 10:28:51;;;;;;;4.88;1.20;;;15.00;92.80;;;;;;6152590;29;20054;-76
2023/03/31 10:31:53;;;;;;;5.93;1.40;;;15.00;93.10;;;;;;6152434;29;20054;-78
2023/03/31 10:34:56;;;;;;;4.50;1.10;;;15.20;92.10;;;;;;6152301;29;20062;-77
2023/03/31 10:38:04;;;;;;;7.35;1.55;;;15.30;91.50;;;;;;6153385;28;20058;-79
2023/03/31 10:41:06;;;;;;;7.07;1.73;;;15.10;88.00;;;;;;6152064;29;20051;-78
2023/03/31 10:44:32;;;;;;;5.32;1.35;;;15.10;86.30;;;;;;6151749;29;20409;-78
2023/03/31 10:47:34;;;;;;;7.47;1.38;;;15.10;85.90;;;;;;6151877;29;20094;-78
2023/03/31 10:50:36;;;;;;;7.13;1.48;;;15.00;85.50;;;;;;6152776;28;20051;-77
2023/03/31 10:53:45;;;;;;;6.88;1.55;;;15.10;86.00;;;;;;6175705;28;20046;-78
2023/03/31 10:56:51;;;;;;;5.35;1.23;;;15.30;85.70;;;;;;6176064;28;20054;-77
2023/03/31 11:00:11;;;;;;;6.45;1.42;;;15.50;84.30;;;;;;6175858;28;20049;-76
2023/03/31 11:03:47;;;;;;;6.82;1.67;;;15.60;84.10;;;;;;6175402;28;20145;-78
2023/03/31 11:06:56;;;;;;;6.90;1.58;;;15.50;83.50;;;;;;6174159;28;20046;-76
2023/03/31 11:10:19;;;;;;;6.63;1.48;;;15.60;82.90;;;;;;6175867;28;20042;-78
2023/03/31 11:13:26;;;;;;;7.32;1.40;;;15.70;82.30;;;;;;6176056;28;20057;-79
2023/03/31 11:16:39;;;;;;;5.95;1.33;;;15.60;81.10;;;;;;6175953;28;20047;-78
2023/03/31 11:19:56;;;;;;;5.40;1.40;;;15.50;83.00;;;;;;6167894;28;20050;-77
2023/03/31 11:23:10;;;;;;;5.38;1.48;;;15.40;82.40;;;;;;6151720;29;20059;-77
2023/03/31 11:26:17;;;;;;;;;;;15.30;81.20;;;;;;6155752;28;20058;-76
2023/03/31 11:29:34;;;;;;;4.97;1.10;;;15.20;81.40;;;;;;6176142;28;19926;-79
2023/03/31 11:32:50;;;;;;;8.27;1.35;;;14.00;89.80;;;;;;6175136;28;20444;-78
2023/03/31 11:36:11;;;;;;;7.32;1.42;;;12.60;96.40;;;;;;6175679;28;20054;-79
2023/03/31 11:39:30;;;;;;;5.20;0.98;;;10.50;99.90;;;;;;6175542;28;20051;-78
2023/03/31 11:42:38;;;;;;;1.85;0.40;;;9.40;99.90;;;;;;6174930;28;20394;-78
2023/03/31 11:45:46;;;;;;;3.53;0.93;;;9.20;99.90;;;;;;6176060;28;20472;-78
2023/03/31 11:48:57;;;;;;;1.80;0.50;;;9.30;99.90;;;;;;6177640;28;20507;-77
2023/03/31 11:52:01;;;;;;;4.10;1.08;;;9.40;99.90;;;;;;6177358;28;20047;-79
2023/03/31 11:55:14;;;;;;;3.22;0.63;;;9.40;99.90;;;;;;6177111;28;20053;-77
2023/03/31 11:58:23;;;;;;;1.27;0.40;;;9.40;99.90;;;;;;6172313;28;20595;-80
2023/03/31 12:01:41;;;;;;;2.50;0.50;;;9.30;99.90;;;;;;6166713;28;20058;-79
2023/03/31 12:04:46;;;;;;;2.92;0.50;;;9.50;99.90;;;;;;6157096;28;20481;-78
2023/03/31 12:07:57;;;;;;;2.05;0.30;;;9.90;99.90;;;;;;6174583;28;20121;-81
2023/03/31 12:11:03;;;;;;;1.65;0.40;;;10.10;99.90;;;;;;6170163;28;20048;-80
2023/03/31 12:14:24;;;;;;;1.42;0.30;;;10.30;99.90;;;;;;6154401;28;20047;-78
2023/03/31 12:17:28;;;;;;;2.72;0.60;;;10.60;99.90;;;;;;6172595;28;20066;-81
2023/03/31 12:20:36;;;;;;;1.85;0.40;;;10.70;99.90;;;;;;6177546;28;20054;-81
2023/03/31 12:23:44;;;;;;;1.67;0.50;;;10.90;99.90;;;;;;6158915;28;20051;-79
2023/03/31 12:26:59;;;;;;;2.42;0.65;;;11.10;99.90;;;;;;6162409;28;20134;-78
2023/03/31 12:30:09;;;;;;;4.05;0.60;;;11.20;99.90;;;;;;6167122;28;20178;-77
2023/03/31 12:33:19;;;;;;;2.58;0.60;;;11.40;99.90;;;;;;6178091;28;20051;-78
2023/03/31 12:36:39;;;;;;;2.13;0.45;;;11.50;99.90;;;;;;6179197;28;20389;-76
2023/03/31 12:39:53;;;;;;;3.95;0.68;;;11.80;99.90;;;;;;6174448;28;20496;-76
2023/03/31 12:43:11;;;;;;;2.42;0.50;;;12.10;99.70;;;;;;6168612;28;20061;-79
2023/03/31 12:46:40;;;;;;;1.35;0.40;;;12.30;98.30;;;;;;6153842;28;20397;-74
2023/03/31 12:50:01;;;;;;;2.40;0.60;;;12.60;98.20;;;;;;6173474;28;20047;-78
2023/03/31 12:53:15;;;;;;;2.72;0.60;;;13.00;97.50;;;;;;6175184;28;20062;-78
2023/03/31 12:56:16;;;;;;;3.03;0.80;;;13.50;96.90;;;;;;6166268;28;20063;-78
2023/03/31 12:59:27;;;;;;;3.50;0.80;;;13.60;95.90;;;;;;6169779;28;20393;-80
2023/03/31 13:02:30;;;;;;;3.88;1.00;;;13.80;96.70;;;;;;6151674;29;20048;-80
2023/03/31 13:05:47;;;;;;;5.70;1.00;;;13.80;95.80;;;;;;6150871;28;20055;-79
2023/03/31 13:08:53;;;;;;;4.82;1.08;;;14.00;96.20;;;;;;6151265;29;20074;-79
2023/03/31 13:11:55;;;;;;;5.07;1.00;;;14.30;95.10;;;;;;6174676;28;20503;-78
2023/03/31 13:14:58;;;;;;;4.57;1.10;;;14.50;94.80;;;;;;6172629;28;20050;-78
2023/03/31 13:18:04;;;;;;;4.95;1.00;;;14.30;94.60;;;;;;6174528;28;20488;-79
2023/03/31 13:21:08;;;;;;;4.88;1.00;;;14.30;94.00;;;;;;6173829;28;20416;-78
2023/03/31 13:24:10;;;;;;;;;;;14.00;94.40;;;;;;6173626;28;20054;-77
2023/03/31 13:27:30;;;;;;;4.78;1.30;;;13.90;94.50;;;;;;6173994;28;19925;-79
2023/03/31 13:30:48;;;;;;;5.35;1.20;;;13.80;94.60;;;;;;6161268;28;20059;-76
2023/03/31 13:33:57;;;;;;;5.07;1.30;;;13.90;94.60;;;;;;6151632;29;20534;-79
2023/03/31 13:37:14;;;;;;;4.93;1.00;;;13.80;94.90;;;;;;6155227;28;20492;-78
2023/03/31 13:40:51;;;;;;;5.30;1.05;;;13.90;95.20;;;;;;6166552;28;20389;-78
2023/03/31 13:44:28;;;;;;;4.43;1.00;;;13.80;95.10;;;;;;6174347;28;20503;-79
2023/03/31 13:47:56;;;;;;;4.35;1.45;;;13.70;95.60;;;;;;6165106;28;20051;-78
2023/03/31 13:51:19;;;;;;;7.38;1.33;;;13.30;96.30;;;;;;6165820;28;20138;-80
2023/03/31 13:55:22;;;;;;;5.63;1.33;;;12.90;97.50;;;;;;6155572;28;20055;-78
2023/03/31 13:58:44;;;;;;;4.70;0.88;;;12.60;99.80;;;;;;6091113;29;20055;-79
2023/03/31 14:02:37;;;;;;;2.22;0.60;;;11.80;99.90;;;;;;6159880;28;20062;-79
2023/03/31 14:05:42;;;;;;;2.05;0.60;;;10.90;99.90;;;;;;6175209;28;20487;-79
2023/03/31 14:08:51;;;;;;;2.22;0.50;;;10.50;99.90;;;;;;6173660;28;20416;-81
2023/03/31 14:11:55;;;;;;;1.30;0.28;;;10.60;99.90;;;;;;6154253;28;20047;-76
2023/03/31 14:14:57;;;;;;;1.92;0.40;;;10.40;99.90;;;;;;6162608;28;20051;-78
2023/03/31 14:17:59;;;;;;;1.85;0.22;;;10.80;99.90;;;;;;6149340;29;20055;-77
2023/03/31 14:21:17;;;;;;;1.35;0.30;;;11.30;99.90;;;;;;6154639;28;20055;-81
2023/03/31 14:24:30;;;;;;;1.52;0.47;;;11.70;99.90;;;;;;6167357;28;20054;-79
2023/03/31 14:27:46;;;;;;;;;;;12.70;99.90;;;;;;6157771;28;20145;-80
2023/03/31 14:31:01;;;;;;;1.05;0.30;;;13.30;99.40;;;;;;6159310;28;20271;-79
2023/03/31 14:34:34;;;;;;;2.03;0.60;;;13.10;98.20;;;;;;6157701;28;20102;-80
2023/03/31 14:37:36;;;;;;;2.20;0.60;;;12.70;99.20;;;;;;6171202;28;20397;-78
2023/03/31 14:40:47;;;;;;;6.20;0.80;;;12.70;99.80;;;;;;6171978;28;20503;-79
2023/03/31 14:43:51;;;;;;;3.83;0.85;;;13.00;99.90;;;;;;6160711;28;20050;-81
2023/03/31 14:46:56;;;;;;;4.18;0.80;;;13.60;99.20;;;;;;6161440;28;20050;-78
2023/03/31 14:50:04;;;;;;;4.03;0.90;;;15.40;97.10;;;;;;6166240;28;20047;-80
2023/03/31 14:53:15;;;;;;;3.50;0.90;;;16.60;93.40;;;;;;6149045;28;20043;-81
2023/03/31 14:56:26;;;;;;;3.03;0.80;;;15.70;93.80;;;;;;6164511;28;20039;-79
2023/03/31 14:59:33;;;;;;;3.40;0.80;;;15.40;94.00;;;;;;6166602;28;20058;-80
2023/03/31 15:02:37;;;;;;;2.58;0.63;;;15.40;93.50;;;;;;6151030;28;20091;-81
2023/03/31 15:05:40;;;;;;;2.20;0.70;;;18.30;88.70;;;;;;6173176;28;20066;-78
2023/03/31 15:08:43;;;;;;;3.08;0.80;;;20.60;78.60;;;;;;6169998;28;20382;-79
2023/03/31 15:11:47;;;;;;;1.90;0.63;;;21.80;74.20;;;;;;6166071;28;20129;-77
2023/03/31 15:14:51;;;;;;;1.60;0.55;;;22.50;69.00;;;;;;6159763;28;20066;-78
2023/03/31 15:17:54;;;;;;;3.28;0.63;;;23.30;65.50;;;;;;6169392;28;20055;-79
2023/03/31 15:20:58;;;;;;;3.05;0.70;;;25.30;60.10;;;;;;6159737;28;20054;-78
2023/03/31 15:24:02;;;;;;;2.40;0.60;;;26.80;55.50;;;;;;6165664;28;20066;-78
2023/03/31 15:27:11;;;;;;;1.50;0.68;;;27.60;52.50;;;;;;6168666;28;20051;-79
2023/03/31 15:30:18;;;;;;;3.60;0.70;;;28.80;49.10;;;;;;6170124;28;20058;-79
2023/03/31 15:33:25;;;;;;;1.48;0.50;;;25.30;51.10;;;;;;6151485;28;20087;-77
2023/03/31 15:36:29;;;;;;;2.83;0.80;;;23.40;54.60;;;;;;6164007;28;20046;-80
2023/03/31 15:39:33;;;;;;;2.92;0.73;;;19.20;64.50;;;;;;6168160;28;20412;-80
2023/03/31 15:42:36;;;;;;;2.53;0.57;;;20.70;64.70;;;;;;6168974;28;20051;-78
2023/03/31 15:45:48;;;;;;;2.50;0.80;;;19.80;63.80;;;;;;6165004;28;20050;-77
2023/03/31 15:48:52;;;;;;;2.33;0.60;;;18.00;67.30;;;;;;6167771;28;20047;-80
2023/03/31 15:51:56;;;;;;;3.33;0.70;;;17.10;70.90;;;;;;6168054;28;20059;-79
2023/03/31 15:54:58;;;;;;;2.95;0.80;;;16.40;73.20;;;;;;6173569;28;20051;-80
2023/03/31 15:58:01;;;;;;;2.67;0.75;;;15.40;77.60;;;;;;6165638;28;20062;-77
2023/03/31 16:01:05;;;;;;;3.08;0.82;;;14.90;79.90;;;;;;6163772;28;20074;-78
2023/03/31 16:04:10;;;;;;;2.40;0.75;;;14.30;82.70;;;;;;6172472;28;20055;-78
2023/03/31 16:07:19;;;;;;;4.13;0.70;;;14.10;85.40;;;;;;6173942;28;20054;-78
2023/03/31 16:10:23;;;;;;;4.55;0.95;;;13.80;87.20;;;;;;6174095;28;20554;-77
2023/03/31 16:13:27;;;;;;;2.38;0.90;;;13.60;88.50;;;;;;6173750;28;20174;-80
2023/03/31 16:16:30;;;;;;;4.70;1.00;;;13.40;89.80;;;;;;6174718;28;20055;-79
2023/03/31 16:19:41;;;;;;;4.22;0.98;;;13.30;90.50;;;;;;6172431;28;20054;-80
2023/03/31 16:22:47;;;;;;;3.28;0.80;;;13.30;91.00;;;;;;6169475;28;20055;-79
2023/03/31 16:25:50;;;;;;;3.38;1.00;;;13.30;91.60;;;;;;6161190;28;20054;-81
2023/03/31 16:28:56;;;;;;;3.08;0.60;;;13.30;92.10;;;;;;6169617;28;20046;-80
2023/03/31 16:32:10;;;;;;;3.28;0.70;;;13.10;92.10;;;;;;6174227;28;20460;-81
2023/03/31 16:35:12;;;;;;;2.88;0.73;;;12.80;92.60;;;;;;6173284;28;20488;-78
2023/03/31 16:38:15;;;;;;;4.72;0.80;;;12.70;93.10;;;;;;6174036;28;20086;-80
2023/03/31 16:41:18;;;;;;;4.03;0.80;;;12.60;93.80;;;;;;6176858;28;20054;-81
2023/03/31 16:44:21;;;;;;;3.13;0.70;;;12.50;95.00;;;;;;6176928;28;20088;-81
2023/03/31 16:47:23;;;;;;;3.88;0.90;;;12.40;96.30;;;;;;6175972;28;20051;-80
2023/03/31 16:50:25;;;;;;;5.07;0.90;;;12.10;99.20;;;;;;6175916;28;20055;-81
2023/03/31 16:53:29;;;;;;;2.65;0.75;;;11.80;99.90;;;;;;6175193;28;20058;-80
2023/03/31 16:56:31;;;;;;;5.43;1.10;;;11.40;99.90;;;;;;6174920;28;20054;-80
2023/03/31 16:59:34;;;;;;;4.97;0.90;;;11.10;99.90;;;;;;6175604;28;20058;-80
2023/03/31 17:02:37;;;;;;;3.95;0.80;;;10.90;99.90;;;;;;6164150;28;20047;-80
2023/03/31 17:05:40;;;;;;;4.68;1.13;;;10.90;99.90;;;;;;6163735;28;20051;-79
2023/03/31 17:08:42;;;;;;;2.27;0.60;;;11.00;99.90;;;;;;6158250;28;20056;-79
2023/03/31 17:11:44;;;;;;;4.30;0.98;;;10.90;99.90;;;;;;6174471;28;20094;-80
2023/03/31 17:14:47;;;;;;;3.33;0.80;;;10.90;99.90;;;;;;6171532;28;20057;-80
2023/03/31 17:17:49;;;;;;;3.80;0.60;;;10.80;99.90;;;;;;6173614;28;20077;-81
2023/03/31 17:20:52;;;;;;;4.88;0.90;;;10.80;99.90;;;;;;6166522;28;20043;-80
2023/03/31 17:23:54;;;;;;;3.80;0.80;;;10.70;99.90;;;;;;6152334;28;20104;-79
2023/03/31 17:26:56;;;;;;;5.65;1.35;;;10.70;99.90;;;;;;6174066;28;20078;-81
2023/03/31 17:29:59;;;;;;;4.07;0.80;;;10.80;99.90;;;;;;6172379;28;20057;-80
2023/03/31 17:33:01;;;;;;;4.30;1.00;;;10.80;99.90;;;;;;6173664;28;20116;-80
2023/03/31 17:36:04;;;;;;;5.90;1.30;;;10.70;99.90;;;;;;6171492;28;20054;-78
2023/03/31 17:39:06;;;;;;;4.85;1.45;;;10.70;99.90;;;;;;6174877;28;20412;-80
2023/03/31 17:42:08;;;;;;;3.90;1.20;;;10.80;99.90;;;;;;6166782;28;20411;-79
2023/03/31 17:45:12;;;;;;;3.22;1.15;;;10.80;99.90;;;;;;6170027;28;20055;-80
2023/03/31 17:48:15;;;;;;;3.58;0.90;;;10.80;99.90;;;;;;6150479;29;20055;-79
2023/03/31 17:51:18;;;;;;;4.15;1.40;;;10.80;99.90;;;;;;6167832;28;20535;-81
2023/03/31 17:54:22;;;;;;;;;;;10.80;99.90;;;;;;6181411;28;20129;-80
2023/03/31 17:57:26;;;;;;;4.68;0.90;;;10.70;99.90;;;;;;6165466;28;20021;-79
2023/03/31 18:00:29;;;;;;;5.05;1.27;;;10.60;99.90;;;;;;6173118;28;20051;-79
2023/03/31 18:03:31;;;;;;;3.80;1.30;;;10.60;99.90;;;;;;6172819;28;20059;-78
2023/03/31 18:06:33;;;;;;;3.65;1.00;;;10.60;99.90;;;;;;6174815;28;20047;-78
2023/03/31 18:09:35;;;;;;;5.28;1.15;;;10.60;99.90;;;;;;6175171;28;20055;-77
2023/03/31 18:12:37;;;;;;;5.43;1.23;;;10.50;99.90;;;;;;6165627;28;20061;-79
2023/03/31 18:15:47;;;;;;;4.85;1.20;;;10.50;99.90;;;;;;6172337;28;20496;-78
2023/03/31 18:18:49;;;;;;;6.25;1.10;;;10.50;99.90;;;;;;6167380;28;20051;-79
2023/03/31 18:21:51;;;;;;;3.28;1.17;;;10.50;99.90;;;;;;6174310;28;20062;-78
2023/03/31 18:24:53;;;;;;;4.35;1.30;;;10.50;99.90;;;;;;6175309;28;20054;-77
2023/03/31 18:27:55;;;;;;;3.63;1.30;;;10.40;99.90;;;;;;6173615;28;20057;-80
2023/03/31 18:31:02;;;;;;;5.80;1.70;;;10.40;99.90;;;;;;6174125;28;20121;-76
2023/03/31 18:34:04;;;;;;;5.93;1.27;;;10.50;99.90;;;;;;6151586;28;20049;-76
2023/03/31 18:37:06;;;;;;;4.22;1.42;;;10.50;99.90;;;;;;6152305;29;20051;-76
2023/03/31 18:40:10;;;;;;;5.80;1.40;;;10.50;99.90;;;;;;6151903;28;20058;-79
2023/03/31 18:43:12;;;;;;;5.80;1.00;;;10.50;99.90;;;;;;6177813;28;20054;-80
2023/03/31 18:46:15;;;;;;;3.35;1.10;;;10.50;99.90;;;;;;6178846;28;20059;-80
2023/03/31 18:49:18;;;;;;;3.80;1.30;;;10.50;99.90;;;;;;6173659;28;20082;-76
2023/03/31 18:52:20;;;;;;;5.22;1.30;;;10.50;99.90;;;;;;6165561;28;20066;-78
2023/03/31 18:55:23;;;;;;;3.10;1.08;;;10.40;99.90;;;;;;6175407;28;20055;-81
2023/03/31 18:58:27;;;;;;;5.45;1.13;;;10.40;99.90;;;;;;6175836;28;20054;-78
2023/03/31 19:01:33;;;;;;;5.28;1.35;;;10.40;99.90;;;;;;6173787;28;20412;-78
2023/03/31 19:04:35;;;;;;;4.00;1.15;;;10.40;99.90;;;;;;6175304;28;20097;-75
2023/03/31 19:07:38;;;;;;;4.88;1.25;;;10.40;99.90;;;;;;6174590;28;20057;-76
2023/03/31 19:10:40;;;;;;;5.40;1.35;;;10.40;99.90;;;;;;6176849;28;20126;-79
2023/03/31 19:13:43;;;;;;;5.70;1.23;;;10.40;99.90;;;;;;6169409;28;20511;-79
2023/03/31 19:16:46;;;;;;;6.03;1.23;;;10.40;99.90;;;;;;6173955;28;20118;-78
2023/03/31 19:19:48;;;;;;;5.10;1.40;;;10.40;99.90;;;;;;6172663;28;20074;-80
2023/03/31 19:22:52;;;;;;;3.85;1.00;;;10.40;99.90;;;;;;6172772;28;20054;-77
2023/03/31 19:25:55;;;;;;;;;;;10.40;99.90;;;;;;6173185;28;20408;-75
2023/03/31 19:28:57;;;;;;;4.30;1.02;;;10.40;99.90;;;;;;6172702;28;19933;-77
2023/03/31 19:32:01;;;;;;;5.22;1.50;;;10.50;99.90;;;;;;6170337;28;20054;-79
2023/03/31 19:35:03;;;;;;;5.97;1.48;;;10.50;99.90;;;;;;6155241;28;20058;-78
2023/03/31 19:38:05;;;;;;;6.93;1.55;;;10.40;99.90;;;;;;6193658;28;20057;-78
2023/03/31 19:41:07;;;;;;;4.93;1.30;;;10.50;99.90;;;;;;6192532;28;20054;-79
2023/03/31 19:44:09;;;;;;;6.07;1.40;;;10.50;99.90;;;;;;6171293;28;20051;-79
2023/03/31 19:47:12;;;;;;;5.45;1.20;;;10.40;99.90;;;;;;6172286;28;20274;-79
2023/03/31 19:50:15;;;;;;;4.40;1.60;;;10.40;99.90;;;;;;6171405;28;20073;-79
2023/03/31 19:53:16;;;;;;;6.43;1.23;;;10.50;99.90;;;;;;6171517;28;20181;-78
2023/03/31 19:56:20;;;;;;;7.40;1.25;;;10.50;99.90;;;;;;6171715;28;20055;-78
2023/03/31 19:59:22;;;;;;;5.70;1.20;;;10.50;99.90;;;;;;6170762;28;20137;-77
2023/03/31 20:02:25;;;;;;;4.28;1.15;;;10.50;99.90;;;;;;6170295;28;20054;-80
2023/03/31 20:05:27;;;;;;;4.97;1.05;;;10.50;99.90;;;;;;6154584;28;20062;-78
2023/03/31 20:08:29;;;;;;;5.38;1.27;;;10.50;99.90;;;;;;6147651;29;20062;-78
2023/03/31 20:11:32;;;;;;;4.53;1.30;;;10.60;99.90;;;;;;6156022;28;20489;-77
2023/03/31 20:14:34;;;;;;;6.97;1.30;;;10.60;99.90;;;;;;6171135;28;20057;-79
2023/03/31 20:17:37;;;;;;;5.95;1.20;;;10.60;99.90;;;;;;6167647;28;20416;-77
2023/03/31 20:20:39;;;;;;;7.18;1.27;;;10.60;99.90;;;;;;6152989;28;20062;-79
2023/03/31 20:23:42;;;;;;;5.03;1.27;;;10.60;99.90;;;;;;6171659;28;20563;-79
2023/03/31 20:26:45;;;;;;;6.18;1.35;;;10.60;99.90;;;;;;6167430;28;20493;-78
2023/03/31 20:29:47;;;;;;;5.93;1.17;;;10.60;99.90;;;;;;6163757;28;20054;-76
2023/03/31 20:32:50;;;;;;;8.77;1.73;;;10.70;99.90;;;;;;6170454;28;20404;-79
2023/03/31 20:36:00;;;;;;;4.75;1.27;;;10.60;99.90;;;;;;6154321;28;20057;-77
2023/03/31 20:39:04;;;;;;;6.95;1.63;;;10.70;99.90;;;;;;6151958;29;20548;-78
2023/03/31 20:42:06;;;;;;;5.20;1.40;;;10.70;99.90;;;;;;6162282;28;20061;-78
2023/03/31 20:45:09;;;;;;;7.20;1.92;;;10.70;99.90;;;;;;6175170;28;20170;-78
2023/03/31 20:48:13;;;;;;;5.70;1.40;;;10.60;99.90;;;;;;6175979;28;20061;-78
2023/03/31 20:51:18;;;;;;;9.38;1.70;;;10.60;99.90;;;;;;6175449;28;20105;-77
2023/03/31 20:54:20;;;;;;;4.78;1.13;;;10.60;99.90;;;;;;6173990;28;20055;-78
2023/03/31 20:57:23;;;;;;;5.43;1.42;;;10.60;99.90;;;;;;6160713;28;20397;-79
2023/03/31 21:00:24;;;;;;;5.10;1.30;;;10.50;99.90;;;;;;6152537;28;20051;-76
2023/03/31 21:03:28;;;;;;;6.20;1.27;;;10.50;99.90;;;;;;6176663;28;20484;-78
2023/03/31 21:06:32;;;;;;;7.22;1.65;;;10.60;99.90;;;;;;6177100;28;20058;-77
2023/03/31 21:09:34;;;;;;;5.53;1.02;;;10.50;99.90;;;;;;6176987;28;20055;-77
2023/03/31 21:12:36;;;;;;;4.28;1.08;;;10.50;99.90;;;;;;6175218;28;20062;-77
2023/03/31 21:15:39;;;;;;;3.92;1.00;;;10.50;99.90;;;;;;6160960;28;20126;-76
2023/03/31 21:18:43;;;;;;;5.47;1.27;;;10.50;99.90;;;;;;6175739;28;20062;-76
2023/03/31 21:21:45;;;;;;;6.32;1.48;;;10.50;99.90;;;;;;6171353;28;20138;-77
2023/03/31 21:24:46;;;;;;;4.97;1.00;;;10.50;99.90;;;;;;6174979;28;20485;-79
2023/03/31 21:27:48;;;;;;;5.15;1.35;;;10.50;99.90;;;;;;6155232;28;20043;-79
2023/03/31 21:30:52;;;;;;;7.68;1.52;;;10.50;99.90;;;;;;6154697;28;20047;-78
2023/03/31 21:33:56;;;;;;;4.15;1.13;;;10.50;99.90;;;;;;6173613;28;20051;-79
2023/03/31 21:36:59;;;;;;;;;;;10.50;99.90;;;;;;6175895;28;20054;-78
2023/03/31 21:40:01;;;;;;;5.35;1.20;;;10.50;99.90;;;;;;6172682;28;19925;-77
2023/03/31 21:43:03;;;;;;;5.75;1.10;;;10.50;99.90;;;;;;6169553;28;20065;-78
2023/03/31 21:46:05;;;;;;;4.25;1.10;;;10.50;99.90;;;;;;6173940;28;20507;-78
2023/03/31 21:49:08;;;;;;;4.32;1.20;;;10.50;99.90;;;;;;6174911;28;20055;-79
2023/03/31 21:52:12;;;;;;;4.60;0.85;;;10.40;99.90;;;;;;6170983;28;20059;-78
2023/03/31 21:55:14;;;;;;;2.67;0.80;;;10.40;99.90;;;;;;6153972;28;20055;-78
2023/03/31 21:58:16;;;;;;;4.57;0.80;;;10.30;99.90;;;;;;6150404;29;20158;-77
